Data for 02/20/2016

Time Sea-Level Adjusted Pressure Absolute Pressure Temperature Relative Humidity Dew Point   
(mb) (inHg) (mb) (inHg) (C) (F) (%) (C) (F)
00:05 1013 29.91 842 24.86 5 41 33 -10.2 13.7
00:10 1013 29.91 842 24.86 4.9 40.9 33 -10.1 13.8
00:15 1013 29.91 842 24.86 4.7 40.5 33 -10.1 13.8
00:20 1013 29.91 842 24.86 4.8 40.7 33 -10.2 13.6
00:25 1013 29.91 842 24.86 4.9 40.9 36 -8.8 16.1
00:30 1013 29.91 843 24.89 4.9 40.9 35 -9.3 15.2
00:35 1013 29.91 843 24.89 5.1 41.2 33 -10 14
00:40 1013 29.91 843 24.89 4.9 40.9 35 -9.3 15.2
00:45 1013 29.91 842 24.86 5 40.9 34 -9.8 14.4
00:50 1013 29.91 843 24.89 5.4 41.8 35 -8.9 16
00:55 1014 29.94 843 24.89 5.3 41.5 35 -8.8 16.1
01:00 1014 29.94 843 24.89 5.2 41.3 37 -8.5 16.7
01:05 1014 29.94 843 24.89 4.9 40.9 39 -7.9 17.8
01:10 1014 29.94 843 24.89 4.8 40.6 42 -7 19.4
01:15 1014 29.94 843 24.89 4.7 40.4 44 -6.5 20.4
01:20 1014 29.94 843 24.89 4.5 40.1 46 -6.2 20.9
01:25 1014 29.94 843 24.89 4.4 40 46 -6.2 20.9
01:30 1014 29.94 843 24.89 4.4 39.9 47 -5.9 21.4
01:35 1014 29.94 843 24.89 4.2 39.6 49 -5.7 21.8
01:40 1014 29.94 843 24.89 4.1 39.3 50 -5.5 22
01:45 1014 29.94 844 24.92 3.8 38.9 49 -6 21.2
01:50 1014 29.94 844 24.92 4.1 39.4 48 -6 21.3
01:55 1015 29.97 844 24.92 4.2 39.6 50 -5.4 22.3
02:00 1015 29.97 844 24.92 3.9 39 53 -4.8 23.3
02:05 1015 29.97 844 24.92 3.6 38.5 53 -5.1 22.8
02:10 1014 29.94 844 24.92 3.5 38.4 56 -4.4 24.1
02:15 1014 29.94 844 24.92 3.3 37.9 57 -4.4 24
02:20 1015 29.97 844 24.92 3.1 37.6 59 -4.2 24.4
02:25 1015 29.97 844 24.92 2.9 37.2 59 -4.3 24.2
02:30 1015 29.97 844 24.92 2.9 37.2 59 -4.3 24.2
02:35 1015 29.97 844 24.92 2.9 37.2 59 -4.4 24
02:40 1015 29.97 844 24.92 2.8 37 58 -4.7 23.5
02:45 1015 29.97 844 24.92 2.8 37.1 53 -5.8 21.6
02:50 1015 29.97 845 24.95 3 37.4 47 -7.1 19.2
02:55 1015 29.97 845 24.95 3.1 37.5 45 -7.6 18.3
03:00 1016 30 845 24.95 3.2 37.7 45 -7.6 18.3
03:05 1016 30 845 24.95 3.1 37.6 45 -7.7 18.2
03:10 1016 30 845 24.95 3 37.3 46 -7.6 18.4
03:15 1016 30 845 24.95 2.8 37.1 46 -7.6 18.4
03:20 1016 30 845 24.95 2.8 37 46 -7.8 18
03:25 1016 30 846 24.98 2.6 36.7 47 -7.5 18.4
03:30 1016 30 846 24.98 2.4 36.3 47 -7.8 18
03:35 1017 30.03 846 24.98 2.3 36.2 46 -8 17.6
03:40 1017 30.03 846 24.98 2.3 36.2 46 -8 17.5
03:45 1017 30.03 846 24.98 2.3 36.1 46 -8.1 17.4
03:50 1017 30.03 846 24.98 2.3 36.1 46 -8.3 17.1
03:55 1017 30.03 846 24.98 2.3 36.2 44 -8.7 16.4
04:00 1017 30.03 846 24.98 2.4 36.3 45 -8.4 16.9
04:05 1017 30.03 846 24.98 2.3 36.2 45 -8.5 16.7
04:10 1017 30.03 846 24.98 2.3 36.2 45 -8.3 17
04:15 1017 30.03 846 24.98 2.3 36.2 45 -8.5 16.7
04:20 1017 30.03 846 24.98 2.3 36.1 45 -8.4 16.8
04:25 1017 30.03 846 24.98 2.2 35.9 46 -8.2 17.3
04:30 1017 30.03 846 24.98 2 35.6 47 -8.3 17.1
04:35 1017 30.03 846 24.98 1.8 35.3 47 -8.3 17
04:40 1017 30.03 846 24.98 1.7 35 47 -8.4 16.8
04:45 1017 30.03 846 24.98 1.7 35 47 -8.6 16.6
04:50 1017 30.03 846 24.98 1.7 35.1 47 -8.5 16.7
04:55 1017 30.03 847 25.01 1.7 35.1 46 -8.6 16.6
05:00 1017 30.03 847 25.01 1.7 35.1 47 -8.5 16.7
05:05 1018 30.06 847 25.01 1.6 35 47 -8.5 16.6
05:10 1018 30.06 847 25.01 1.7 35 43 -9.5 14.9
05:15 1018 30.06 847 25.01 1.8 35.2 45 -8.9 16
05:20 1018 30.06 847 25.01 1.6 34.9 46 -8.7 16.3
05:25 1018 30.06 847 25.01 1.5 34.7 46 -8.9 16
05:30 1018 30.06 847 25.01 1.5 34.7 46 -8.9 15.9
05:35 1018 30.06 847 25.01 1.6 34.8 46 -8.7 16.3
05:40 1018 30.06 847 25.01 1.5 34.8 47 -8.7 16.4
05:45 1018 30.06 847 25.01 1.5 34.8 46 -8.9 16
05:50 1018 30.06 847 25.01 1.6 34.8 46 -8.9 16
05:55 1018 30.06 847 25.01 1.6 34.8 45 -9 15.8
06:00 1018 30.06 847 25.01 1.6 34.9 44 -9.3 15.2
06:05 1018 30.06 847 25.01 1.7 35 44 -9.3 15.2
06:10 1018 30.06 847 25.01 1.7 35.1 44 -9.2 15.5
06:15 1018 30.06 848 25.04 1.7 35.1 45 -9 15.9
06:20 1018 30.06 848 25.04 1.7 35.1 44 -9.4 15.1
06:25 1018 30.06 848 25.04 1.8 35.2 42 -9.7 14.6
06:30 1019 30.09 848 25.04 1.8 35.3 43 -9.6 14.7
06:35 1019 30.09 848 25.04 1.8 35.3 43 -9.3 15.2
06:40 1019 30.09 848 25.04 1.8 35.2 46 -8.6 16.5
06:45 1019 30.09 848 25.04 1.6 34.8 48 -8.4 16.9
06:50 1019 30.09 848 25.04 1.4 34.5 48 -8.5 16.8
06:55 1019 30.09 848 25.04 1.1 34 48 -8.6 16.5
07:00 1019 30.09 848 25.04 1.1 34 48 -8.8 16.1
07:05 1019 30.09 848 25.04 1.2 34.1 47 -8.8 16.1
07:10 1019 30.09 848 25.04 1.2 34.1 47 -8.9 16
07:15 1019 30.09 848 25.04 1.2 34.2 48 -8.6 16.5
07:20 1019 30.09 848 25.04 1 33.9 48 -8.8 16.1
07:25 1019 30.09 848 25.04 0.9 33.6 47 -9.1 15.5
07:30 1019 30.09 848 25.04 0.8 33.4 46 -9.6 14.8
07:35 1019 30.09 848 25.04 0.8 33.4 46 -9.6 14.7
07:40 1019 30.09 848 25.04 0.8 33.4 45 -9.8 14.4
07:45 1019 30.09 848 25.04 0.8 33.4 45 -9.7 14.5
07:50 1019 30.09 848 25.04 0.7 33.3 46 -9.7 14.6
07:55 1019 30.09 848 25.04 0.6 33.1 46 -9.7 14.5
08:00 1019 30.09 848 25.04 0.6 33 46 -9.8 14.3
08:05 1019 30.09 849 25.07 0.6 33 47 -9.6 14.7
08:10 1019 30.09 849 25.07 0.5 32.9 47 -9.4 15.1
08:15 1019 30.09 849 25.07 0.5 32.8 49 -9 15.8
08:20 1020 30.12 849 25.07 0.4 32.8 49 -9.1 15.6
08:25 1020 30.12 849 25.07 0.4 32.7 49 -9.2 15.4
08:30 1020 30.12 849 25.07 0.4 32.7 49 -9.2 15.5
08:35 1020 30.12 849 25.07 0.4 32.7 47 -9.8 14.4
08:40 1020 30.12 849 25.07 0.6 33 44 -10.3 13.4
08:45 1020 30.12 849 25.07 0.8 33.4 42 -10.8 12.5
08:50 1020 30.12 849 25.07 1 33.7 43 -10.3 13.5
08:55 1020 30.12 849 25.07 1 33.7 43 -10.2 13.6
09:00 1020 30.12 849 25.07 0.9 33.7 45 -9.8 14.3
09:05 1020 30.12 849 25.07 0.9 33.7 43 -10.3 13.5
09:10 1020 30.12 849 25.07 1 33.7 43 -10.2 13.6
09:15 1020 30.12 849 25.07 0.9 33.7 42 -10.5 13.2
09:20 1020 30.12 849 25.07 0.9 33.7 44 -10 14
09:25 1020 30.12 849 25.07 0.8 33.5 45 -9.8 14.3
09:30 1020 30.12 850 25.1 0.7 33.3 45 -9.9 14.2
09:35 1020 30.12 850 25.1 0.7 33.2 45 -10 13.9
09:40 1021 30.15 850 25.1 0.8 33.5 43 -10.2 13.6
09:45 1021 30.15 850 25.1 1.3 34.3 42 -10.2 13.7
09:50 1021 30.15 850 25.1 1.2 34.2 43 -10 13.9
09:55 1021 30.15 850 25.1 1.6 34.9 42 -9.9 14.3
10:00 1021 30.15 850 25.1 2.1 35.7 40 -10 13.9
10:05 1021 30.15 850 25.1 2.3 36.2 34 -12 10.4
10:10 1021 30.15 850 25.1 2.1 35.8 35 -11.7 11
10:15 1021 30.15 850 25.1 2.1 35.8 35 -11.9 10.6
10:20 1021 30.15 850 25.1 2.2 36 36 -11.5 11.3
10:25 1021 30.15 850 25.1 2.7 36.8 36 -11.1 12.1
10:30 1021 30.15 850 25.1 2.8 37 33 -12 10.4
10:35 1021 30.15 850 25.1 2.8 37.1 35 -11.1 12
10:40 1021 30.15 850 25.1 3 37.4 34 -11.6 11.2
10:45 1021 30.15 850 25.1 3.1 37.6 35 -11 12.2
10:50 1021 30.15 850 25.1 3.2 37.7 34 -11.3 11.6
10:55 1021 30.15 850 25.1 3.3 37.9 34 -11.3 11.6
11:00 1021 30.15 850 25.1 3.4 38.1 33 -11.5 11.4
11:05 1021 30.15 850 25.1 3.4 38.1 33 -11.4 11.5
11:10 1021 30.15 850 25.1 3.4 38.2 29 -12.9 8.9
11:15 1021 30.15 850 25.1 3.3 37.9 29 -13.1 8.4
11:20 1021 30.15 850 25.1 3.4 38.2 28 -13.5 7.7
11:25 1021 30.15 850 25.1 3.5 38.2 29 -13.2 8.3
11:30 1021 30.15 851 25.13 3.4 38.1 28 -13.7 7.4
11:35 1021 30.15 851 25.13 3.8 38.9 29 -12.9 8.8
11:40 1021 30.15 851 25.13 3.7 38.6 29 -12.7 9.1
11:45 1021 30.15 851 25.13 3.7 38.7 28 -13.3 8.1
11:50 1021 30.15 850 25.1 3.8 38.9 28 -13.1 8.5
11:55 1021 30.15 851 25.13 3.9 39 29 -12.8 8.9
12:00 1021 30.15 850 25.1 3.8 38.8 27 -13.5 7.7
12:05 1021 30.15 850 25.1 3.6 38.5 28 -13.1 8.4
12:10 1021 30.15 850 25.1 3.9 39 25 -14.2 6.4
12:15 1021 30.15 850 25.1 3.7 38.7 26 -14.2 6.5
12:20 1021 30.15 850 25.1 3.1 37.6 28 -14 6.9
12:25 1021 30.15 850 25.1 3.4 38.1 26 -14.2 6.5
12:30 1021 30.15 850 25.1 3.8 38.8 26 -13.9 6.9
12:35 1021 30.15 850 25.1 3.8 38.8 27 -13.5 7.6
12:40 1021 30.15 850 25.1 3.7 38.6 26 -14.2 6.4
12:45 1021 30.15 850 25.1 4 39.1 27 -13.4 7.9
12:50 1021 30.15 850 25.1 4.2 39.6 24 -14.4 6
12:55 1021 30.15 850 25.1 3.8 38.8 33 -11.2 11.9
13:00 1021 30.15 850 25.1 2.9 37.1 35 -11.1 11.9
13:05 1021 30.15 850 25.1 2.5 36.4 33 -12.4 9.6
13:10 1021 30.15 850 25.1 2.5 36.5 31 -12.9 8.8
13:15 1021 30.15 850 25.1 2.5 36.5 35 -11.5 11.3
13:20 1021 30.15 850 25.1 1.9 35.3 33 -12.8 8.9
13:25 1021 30.15 850 25.1 2.1 35.8 31 -13.2 8.2
13:30 1021 30.15 850 25.1 2.4 36.2 30 -13.4 7.9
13:35 1021 30.15 850 25.1 2.5 36.5 31 -13.2 8.2
13:40 1021 30.15 850 25.1 2.6 36.7 31 -13 8.7
13:45 1021 30.15 850 25.1 2.8 37.1 28 -13.8 7.2
13:50 1021 30.15 850 25.1 2.5 36.5 33 -12.1 10.3
13:55 1021 30.15 850 25.1 2.6 36.6 30 -13.2 8.3
14:00 1021 30.15 850 25.1 3.2 37.8 32 -12 10.5
14:05 1021 30.15 850 25.1 3.1 37.5 32 -12 10.4
14:10 1021 30.15 850 25.1 3.2 37.8 31 -12.3 9.9
14:15 1021 30.15 850 25.1 2.9 37.2 31 -12.7 9.1
14:20 1021 30.15 850 25.1 2.7 36.9 32 -12.6 9.4
14:25 1021 30.15 850 25.1 2.6 36.7 32 -12.4 9.7
14:30 1021 30.15 850 25.1 2.3 36.2 33 -12.5 9.5
14:35 1021 30.15 850 25.1 2.5 36.6 31 -13.1 8.5
14:40 1021 30.15 850 25.1 2.7 36.9 32 -12.6 9.3
14:45 1021 30.15 850 25.1 2.8 37.1 28 -13.8 7.2
14:50 1021 30.15 850 25.1 3.1 37.5 30 -13.1 8.4
14:55 1021 30.15 850 25.1 3.4 38.1 28 -13.6 7.6
15:00 1021 30.15 851 25.13 3.4 38.1 26 -14.2 6.4
15:05 1021 30.15 851 25.13 3.8 38.8 30 -12.1 10.2
15:10 1021 30.15 851 25.13 2.9 37.3 36 -10.7 12.8
15:15 1021 30.15 851 25.13 2.4 36.3 32 -12.5 9.4
15:20 1021 30.15 851 25.13 2.4 36.3 31 -13.1 8.4
15:25 1021 30.15 851 25.13 2.6 36.6 33 -12 10.4
15:30 1021 30.15 851 25.13 2.6 36.7 32 -12.4 9.7
15:35 1021 30.15 851 25.13 2.6 36.6 28 -14.1 6.6
15:40 1022 30.18 851 25.13 2.8 37 28 -13.9 7
15:45 1022 30.18 851 25.13 2.9 37.2 29 -13.3 8
15:50 1022 30.18 851 25.13 3.3 37.9 29 -13.1 8.4
15:55 1022 30.18 851 25.13 3.7 38.7 29 -12.8 8.9
16:00 1022 30.18 851 25.13 3.4 38.2 28 -13.3 8.1
16:05 1022 30.18 851 25.13 2.4 36.3 30 -13.4 7.8
16:10 1022 30.18 851 25.13 2 35.6 30 -13.8 7.2
16:15 1022 30.18 851 25.13 2.1 35.8 28 -14.6 5.8
16:20 1022 30.18 851 25.13 2.3 36.1 28 -14.5 5.9
16:25 1022 30.18 851 25.13 2.4 36.3 29 -14.1 6.7
16:30 1022 30.18 851 25.13 2.3 36.2 30 -13.8 7.2
16:35 1022 30.18 851 25.13 2.2 35.9 30 -13.6 7.6
16:40 1022 30.18 851 25.13 2 35.7 31 -13.5 7.8
16:45 1022 30.18 851 25.13 2 35.6 31 -13.4 7.9
16:50 1022 30.18 851 25.13 2 35.6 33 -12.5 9.5
16:55 1022 30.18 851 25.13 1.9 35.4 35 -11.9 10.6
17:00 1022 30.18 852 25.16 1.8 35.2 35 -12.2 10
17:05 1022 30.18 852 25.16 1.9 35.3 37 -11.5 11.4
17:10 1023 30.21 852 25.16 1.6 34.8 36 -12.1 10.2
17:15 1023 30.21 852 25.16 1.7 35.1 34 -12.6 9.3
17:20 1023 30.21 852 25.16 2.1 35.8 31 -13.5 7.6
17:25 1023 30.21 852 25.16 2.4 36.3 30 -13.4 7.9
17:30 1023 30.21 852 25.16 2.5 36.4 29 -13.7 7.3
17:35 1023 30.21 852 25.16 2.5 36.5 30 -13.5 7.7
17:40 1023 30.21 852 25.16 2.6 36.6 30 -13.3 8.1
17:45 1023 30.21 852 25.16 2.6 36.7 30 -13.3 8.1
17:50 1023 30.21 852 25.16 2.7 36.8 31 -13 8.7
17:55 1023 30.21 852 25.16 2.6 36.7 31 -12.9 8.9
18:00 1023 30.21 852 25.16 2.6 36.6 31 -13 8.6
18:05 1023 30.21 852 25.16 2.5 36.5 31 -13 8.5
18:10 1023 30.21 853 25.19 2.4 36.4 32 -12.6 9.3
18:15 1023 30.21 853 25.19 2.4 36.4 32 -12.6 9.4
18:20 1023 30.21 853 25.19 2.1 35.8 33 -12.5 9.5
18:25 1023 30.21 853 25.19 1.9 35.5 34 -12.5 9.5
18:30 1023 30.21 853 25.19 1.8 35.2 35 -12 10.5
18:35 1023 30.21 853 25.19 1.6 34.9 37 -11.5 11.3
18:40 1024 30.24 853 25.19 1.5 34.7 38 -11.4 11.5
18:45 1024 30.24 853 25.19 1.4 34.6 39 -11.2 11.8
18:50 1024 30.24 853 25.19 1 33.9 39 -11.5 11.2
18:55 1024 30.24 853 25.19 0.8 33.5 38 -11.9 10.6
19:00 1024 30.24 853 25.19 0.7 33.3 40 -11.4 11.5
19:05 1024 30.24 853 25.19 0.5 32.9 42 -10.9 12.5
19:10 1024 30.24 853 25.19 0.1 32.2 44 -10.8 12.5
19:15 1024 30.24 853 25.19 -0.1 31.8 45 -10.6 12.9
19:20 1024 30.24 853 25.19 -0.3 31.5 47 -10.4 13.3
19:25 1024 30.24 853 25.19 -0.4 31.2 45 -10.9 12.3
19:30 1024 30.24 853 25.19 -0.4 31.3 45 -11 12.2
19:35 1024 30.24 853 25.19 -0.4 31.3 46 -10.6 12.9
19:40 1024 30.24 853 25.19 -0.6 31 48 -10.3 13.4
19:45 1024 30.24 853 25.19 -0.7 30.8 48 -10.3 13.4
19:50 1024 30.24 853 25.19 -0.7 30.8 47 -10.7 12.7
19:55 1024 30.24 853 25.19 -0.6 30.9 47 -10.7 12.7
20:00 1024 30.24 854 25.22 -0.6 31 46 -10.7 12.7
20:05 1024 30.24 854 25.22 -0.5 31.1 46 -10.7 12.8
20:10 1025 30.27 854 25.22 -0.6 30.9 47 -10.7 12.8
20:15 1025 30.27 854 25.22 -0.7 30.8 46 -10.8 12.5
20:20 1025 30.27 854 25.22 -0.6 30.9 45 -11.1 12.1
20:25 1025 30.27 854 25.22 -0.7 30.8 46 -10.9 12.5
20:30 1025 30.27 854 25.22 -0.8 30.6 46 -11.1 12
20:35 1025 30.27 854 25.22 -0.8 30.5 47 -10.9 12.3
20:40 1025 30.27 854 25.22 -0.9 30.3 45 -11.3 11.6
20:45 1025 30.27 854 25.22 -0.9 30.5 45 -11.4 11.6
20:50 1025 30.27 854 25.22 -0.9 30.5 46 -11.1 11.9
20:55 1025 30.27 854 25.22 -0.9 30.4 45 -11.4 11.5
21:00 1025 30.27 854 25.22 -0.8 30.5 44 -11.7 10.9
21:05 1025 30.27 854 25.22 -0.8 30.6 43 -11.9 10.6
21:10 1025 30.27 854 25.22 -0.8 30.5 43 -11.8 10.8
21:15 1025 30.27 854 25.22 -0.8 30.5 43 -12 10.3
21:20 1025 30.27 855 25.25 -0.9 30.4 43 -11.9 10.6
21:25 1025 30.27 855 25.25 -1 30.3 44 -11.8 10.7
21:30 1025 30.27 855 25.25 -1.1 30 44 -11.8 10.7
21:35 1026 30.3 855 25.25 -1.2 29.8 44 -12 10.4
21:40 1026 30.3 855 25.25 -1.2 29.8 44 -12.1 10.2
21:45 1026 30.3 855 25.25 -1.3 29.6 43 -12.2 10
21:50 1026 30.3 855 25.25 -1.4 29.4 43 -12.5 9.4
21:55 1026 30.3 855 25.25 -1.4 29.4 43 -12.5 9.6
22:00 1026 30.3 855 25.25 -1.6 29.2 44 -12.2 10
22:05 1026 30.3 855 25.25 -1.6 29 44 -12.2 10
22:10 1026 30.3 855 25.25 -1.6 29.1 44 -12.4 9.7
22:15 1026 30.3 855 25.25 -1.6 29.1 44 -12.4 9.7
22:20 1026 30.3 855 25.25 -1.5 29.3 43 -12.6 9.4
22:25 1026 30.3 855 25.25 -1.5 29.3 44 -12.1 10.2
22:30 1026 30.3 855 25.25 -1.6 29.1 45 -12 10.4
22:35 1026 30.3 855 25.25 -1.7 29 46 -11.9 10.7
22:40 1026 30.3 855 25.25 -1.8 28.7 46 -12 10.4
22:45 1026 30.3 855 25.25 -2 28.4 47 -11.9 10.5
22:50 1026 30.3 855 25.25 -2.2 28.1 47 -12.1 10.2
22:55 1026 30.3 855 25.25 -2.5 27.6 48 -11.9 10.5
23:00 1026 30.3 855 25.25 -2.8 27 48 -12.3 9.9
23:05 1026 30.3 855 25.25 -3 26.7 48 -12.6 9.3
23:10 1026 30.3 855 25.25 -2.9 26.8 47 -12.7 9.1
23:15 1026 30.3 855 25.25 -2.8 26.9 47 -12.7 9.2
23:20 1026 30.3 855 25.25 -2.8 26.9 46 -12.9 8.9
23:25 1026 30.3 855 25.25 -2.7 27.1 46 -12.8 9
23:30 1026 30.3 855 25.25 -2.8 27 46 -12.9 8.9
23:35 1026 30.3 856 25.28 -2.9 26.8 47 -12.6 9.3
23:40 1026 30.3 856 25.28 -3.1 26.4 48 -12.6 9.3
23:45 1026 30.3 856 25.28 -3.1 26.5 47 -13 8.6
23:50 1026 30.3 856 25.28 -2.9 26.8 45 -13.2 8.3
23:55 1026 30.3 856 25.28 -3 26.7 46 -12.9 8.8
24:00 1026 30.3 856 25.28 -3.1 26.4 47 -12.9 8.8